Weather observations for the past three days for
Nausori International Airport
Metric (Imperial)
Date Time (+12) Wind (kph) Vis. (km) Weather Sky Cond. Temperature (ºC) Relative Humidity Wind Chill (°C) Heat Index (°C) Pressure Precipitation (cm)
Air Dwpt 6 hour altimeter (cm) sea level (mb) 1 hr 3 hr 6 hr
Max. Min.
31 14:00 E 13 0.00 Mostly Cloudy SCT022 BKN045 23 20 83% 0 0.0
31 13:00 E 11 0.00 Mostly Cloudy SCT022 BKN045 23 20 83% 0 0.0
31 12:00 SE 9 0.00 Light Rain SCT022 BKN045 23 21 89% 0 0.0
31 11:00 E 11 0.00 Mostly Cloudy SCT025 BKN045 23 20 83% 0 0.0
31 10:00 E 13 0.00 Mostly Cloudy SCT025 BKN045 23 20 83% 0 0.0
31 09:00 E 13 0.00 Mostly Cloudy SCT025 BKN045 24 20 78% 24 0 0.0
31 08:00 Calm 0.00 Mostly Cloudy SCT025 BKN045 22 20 88% 0 0.0
31 07:00 Calm 0.00 Mostly Cloudy SCT025 BKN045 20 20 100% 0 0.0
31 06:00 Vrbl 4 0.00 Partly Cloudy SCT025 SCT045 20 20 100% 0 0.0
31 05:00 Calm 0.00 Mostly Cloudy SCT025 BKN045 20 20 100% 0 0.0
31 04:00 Calm 0.00 Partly Cloudy SCT025 SCT045 20 20 100% 0 0.0
31 03:00 Calm 0.00 Mostly Cloudy BKN027 19 19 100% 0 0.0
31 02:00 Calm 0.00 A Few Clouds FEW027 19 19 100% 0 0.0
31 01:00 Calm 0.00 Partly Cloudy SCT027 20 19 94% 0 0.0
31 00:00 E 9 0.00 Partly Cloudy SCT027 SCT047 22 19 83% 0 0.0
30 23:00 E 7 0.00 Mostly Cloudy SCT020 BKN045 22 19 83% 0 0.0
30 22:00 SE 15 0.00 Mostly Cloudy SCT020 BKN045 23 19 78% 0 0.0
30 21:00 SE 7 0.00 Mostly Cloudy SCT020 BKN045 22 19 83% 0 0.0
30 20:00 SE 11 0.00 Mostly Cloudy SCT020 BKN045 22 19 83% 0 0.0
30 19:00 S 13 0.00 Mostly Cloudy SCT020 BKN045 23 19 78% 0 0.0
30 18:00 S 11 0.00 Mostly Cloudy SCT022 BKN045 23 18 74% 0 0.0
30 17:00 S 19 0.00 Mostly Cloudy SCT022 BKN045 24 18 69% 25 0 0.0
30 16:00 S 13 0.00 Mostly Cloudy SCT022 BKN045 24 20 78% 24 0 0.0
30 15:00 S 20 0.00 Partly Cloudy SCT024 25 21 79% 26 0 0.0
30 14:00 SE 20 0.00 Partly Cloudy SCT024 26 20 70% 27 0 0.0
30 13:00 S 15 0.00 Mostly Cloudy BKN024 26 20 70% 27 0 0.0
30 12:00 S 17 0.00 Mostly Cloudy BKN024 26 20 70% 27 0 0.0
30 11:00 S 13 0.00 Partly Cloudy SCT024 27 21 70% 29 0 0.0
30 10:00 S 13 0.00 Partly Cloudy SCT024 26 20 70% 27 0 0.0
30 09:00 SW 9 0.00 Partly Cloudy FEW016 SCT024 24 21 83% 24 0 0.0
30 08:00 Calm 0.00 A Few Clouds FEW020 22 21 94% 0 0.0
30 07:00 Calm 0.00 A Few Clouds FEW020 19 19 100% 0 0.0
30 06:00 Calm 0.00 A Few Clouds FEW020 19 19 100% 0 0.0
30 05:00 Calm 0.00 A Few Clouds FEW020 19 19 100% 0 0.0
30 04:00 Calm 0.00 A Few Clouds FEW020 19 19 100% 0 0.0
30 03:00 Calm 0.00 A Few Clouds FEW020 20 20 100% 0 0.0
30 02:00 Calm 0.00 A Few Clouds FEW020 20 20 100% 0 0.0
30 01:00 Calm 0.00 A Few Clouds FEW020 21 21 100% 0 0.0
30 00:00 Calm 0.00 Mostly Cloudy SCT020 BKN050 21 21 100% 0 0.0
29 23:00 Calm 0.00 Partly Cloudy SCT020 SCT050 21 21 100% 0 0.0
29 22:00 Calm 0.00 Partly Cloudy SCT024 SCT050 21 20 94% 0 0.0
29 21:00 Calm 0.00 Partly Cloudy SCT024 21 21 100% 0 0.0
29 20:00 Vrbl 4 0.00 Mostly Cloudy BKN024 22 21 94% 0 0.0
29 19:00 SE 6 0.00 Mostly Cloudy BKN024 23 21 89% 0 0.0
29 18:00 S 6 0.00 Mostly Cloudy BKN024 24 21 83% 24 0 0.0
29 17:00 S 11 0.00 Partly Cloudy SCT024 26 20 70% 27 0 0.0
29 16:00 E 7 0.00 Partly Cloudy SCT024 26 21 74% 27 0 0.0
29 15:00 SE 17 0.00 Partly Cloudy SCT024 28 22 70% 31 0 0.0
29 14:00 S 19 0.00 Partly Cloudy SCT024 27 22 74% 29 0 0.0
29 13:00 N 6 0.00 Partly Cloudy SCT024 29 21 62% 31 0 0.0
29 12:00 W 9 0.00 Partly Cloudy SCT024 28 20 62% 30 0 0.0
29 11:00 W 11 0.00 Partly Cloudy SCT024 26 21 74% 27 0 0.0
29 10:00 W 7 0.00 A Few Clouds FEW022 26 21 74% 27 0 0.0
29 09:00 W 7 0.00 A Few Clouds FEW022 24 21 83% 24 0 0.0
29 08:00 W 6 0.00 A Few Clouds FEW020 22 22 100% 0 0.0
29 07:00 Vrbl 4 0.00 Patches Fog SCT020 20 20 100% 0 0.0
29 06:00 Calm 0.00 Mostly Cloudy BKN020 20 20 100% 0 0.0
29 05:00 Calm 0.00 Mostly Cloudy BKN020 21 21 100% 0 0.0
29 04:00 Calm 0.00 Mostly Cloudy BKN020 20 20 100% 0 0.0
29 03:00 Calm 0.00 Mostly Cloudy BKN020 21 21 100% 0 0.0
29 02:00 Calm 0.00 Mostly Cloudy BKN020 21 21 100% 0 0.0
29 01:00 Calm 0.00 Mostly Cloudy BKN020 22 22 100% 0 0.0
29 00:00 Calm 0.00 Mostly Cloudy BKN020 22 22 100% 0 0.0
28 23:00 NE 6 0.00 Mostly Cloudy SCT018 BKN045 23 22 94% 0 0.0
28 22:00 NE 6 0.00 Mostly Cloudy SCT018 BKN045 22 22 100% 0 0.0
28 21:00 NE 6 0.00 Partly Cloudy FEW018 SCT045 22 22 100% 0 0.0
28 20:00 E 9 0.00 Mostly Cloudy FEW018 BKN045 23 22 94% 0 0.0
28 19:00 E 7 0.00 A Few Clouds FEW018 23 22 94% 0 0.0
28 18:00 E 13 0.00 Partly Cloudy SCT018TCU SCT044 24 22 89% 24 0 0.0
28 17:00 NE 15 0.00 Partly Cloudy BKN018TCU SCT045 25 22 83% 26 0 0.0
28 16:00 NE 15 0.00 Partly Cloudy SCT020 26 22 79% 28 0 0.0
28 15:00 N 13 0.00 Partly Cloudy SCT018 26 22 79% 28 0 0.0
Date Time (+12) Wind (kph) Vis. (km) Weather Sky Cond. Air Dwpt Max. Min. Relative Humidity Wind Chill (°C) Heat Index (°C) altimeter (cm) sea level (mb) 1 hr 3 hr 6 hr
6 hour
Temperature (ºC) Pressure Precipitation (cm)